createdAt,value
2019-01-06T00:01:18.055Z,100668.45
2019-01-06T00:04:07.019Z,100672.53
2019-01-06T00:06:50.021Z,100675.71
2019-01-06T00:09:27.429Z,100678.70
2019-01-06T00:12:14.304Z,100678.28
2019-01-06T00:15:00.518Z,100680.31
2019-01-06T00:17:44.023Z,100684.09
2019-01-06T00:20:18.086Z,100683.30
2019-01-06T00:23:05.876Z,100680.56
2019-01-06T00:25:36.979Z,100687.78
2019-01-06T00:28:10.613Z,100690.23
2019-01-06T00:30:41.705Z,100694.39
2019-01-06T00:33:12.871Z,100704.06
2019-01-06T00:35:59.764Z,100704.90
2019-01-06T00:38:46.256Z,100709.25
2019-01-06T00:41:20.186Z,100714.66
2019-01-06T00:43:59.757Z,100720.03
2019-01-06T00:46:39.856Z,100715.16
2019-01-06T00:49:11.288Z,100719.63
2019-01-06T00:51:57.407Z,100715.55
2019-01-06T00:54:34.155Z,100718.27
2019-01-06T00:57:17.087Z,100722.42
2019-01-06T00:59:50.821Z,100725.18
2019-01-06T01:02:27.609Z,100747.00
2019-01-06T01:05:10.952Z,100742.30
2019-01-06T01:07:42.129Z,100742.83
2019-01-06T01:10:17.581Z,100741.62
2019-01-06T01:13:05.052Z,100732.98
2019-01-06T01:15:36.170Z,100739.47
2019-01-06T01:18:07.269Z,100740.89
2019-01-06T01:20:38.664Z,100740.59
2019-01-06T01:23:26.003Z,100734.30
2019-01-06T01:26:13.762Z,100742.66
2019-01-06T01:28:53.799Z,100741.55
2019-01-06T01:31:41.461Z,100738.59
2019-01-06T01:34:29.081Z,100745.00
2019-01-06T01:37:00.192Z,100753.64
2019-01-06T01:39:31.355Z,100750.39
2019-01-06T01:42:08.707Z,100748.87
2019-01-06T01:44:56.844Z,100752.32
2019-01-06T01:47:46.052Z,100750.91
2019-01-06T01:50:17.214Z,100756.30
2019-01-06T01:53:03.111Z,100758.22
2019-01-06T01:55:46.277Z,100766.66
2019-01-06T01:58:32.470Z,100771.00
2019-01-06T02:01:06.408Z,100773.34
2019-01-06T02:03:37.754Z,100763.28
2019-01-06T02:06:08.954Z,100767.43
2019-01-06T02:08:56.519Z,100767.86
2019-01-06T02:11:30.000Z,100774.95
2019-01-06T02:14:01.194Z,100771.70
2019-01-06T02:16:48.183Z,100764.80
2019-01-06T02:19:22.053Z,100766.92
2019-01-06T02:22:02.406Z,100775.27
2019-01-06T02:24:39.549Z,100777.70
2019-01-06T02:27:10.965Z,100786.02
2019-01-06T02:30:00.250Z,100789.27
2019-01-06T02:32:43.057Z,100794.05
2019-01-06T02:35:30.582Z,100795.09
2019-01-06T02:38:07.982Z,100792.23
2019-01-06T02:40:41.808Z,100798.43
2019-01-06T02:43:29.365Z,100801.58
2019-01-06T02:46:08.951Z,100810.83
2019-01-06T02:48:42.938Z,100808.66
2019-01-06T02:51:23.540Z,100810.83
2019-01-06T02:53:57.632Z,100814.56
2019-01-06T02:56:44.971Z,100816.30
2019-01-06T02:59:16.076Z,100816.19
2019-01-06T03:02:00.983Z,100809.98
2019-01-06T03:04:34.808Z,100822.30
2019-01-06T03:07:22.292Z,100821.39
2019-01-06T03:10:02.385Z,100824.03
2019-01-06T03:12:49.938Z,100823.91
2019-01-06T03:15:39.315Z,100812.75
2019-01-06T03:18:19.303Z,100812.74
2019-01-06T03:20:59.378Z,100816.37
2019-01-06T03:23:46.485Z,100809.08
2019-01-06T03:26:17.770Z,100815.59
2019-01-06T03:28:57.806Z,100823.70
2019-01-06T03:31:28.907Z,100831.33
2019-01-06T03:34:03.034Z,100830.11
2019-01-06T03:36:40.544Z,100812.34
2019-01-06T03:39:28.075Z,100806.64
2019-01-06T03:42:17.545Z,100791.93
2019-01-06T03:44:49.007Z,100788.27
2019-01-06T03:47:26.262Z,100777.20
2019-01-06T03:49:57.368Z,100777.72
2019-01-06T03:52:30.927Z,100782.69
2019-01-06T03:55:02.385Z,100785.72
2019-01-06T03:57:36.205Z,100787.55
2019-01-06T04:00:25.559Z,100790.91
2019-01-06T04:02:56.673Z,100790.30
2019-01-06T04:05:45.996Z,100792.45
2019-01-06T04:08:17.117Z,100780.87
2019-01-06T04:10:57.119Z,100782.89
2019-01-06T04:13:44.660Z,100785.02
2019-01-06T04:16:22.180Z,100790.01
2019-01-06T04:19:11.252Z,100788.59
2019-01-06T04:22:00.488Z,100786.45
2019-01-06T04:24:47.865Z,100785.25
2019-01-06T04:27:18.954Z,100779.97
2019-01-06T04:30:06.115Z,100779.14
2019-01-06T04:32:53.447Z,100784.44
2019-01-06T04:35:24.556Z,100787.39
2019-01-06T04:38:13.891Z,100787.39
2019-01-06T04:41:01.486Z,100781.08
2019-01-06T04:43:44.740Z,100795.59
2019-01-06T04:46:15.831Z,100790.31
2019-01-06T04:49:03.065Z,100796.31
2019-01-06T04:51:46.123Z,100798.03
2019-01-06T04:54:17.226Z,100801.80
2019-01-06T04:56:51.592Z,100808.02
2019-01-06T04:59:22.703Z,100802.50
2019-01-06T05:02:02.572Z,100803.94
2019-01-06T05:04:43.000Z,100803.55
2019-01-06T05:07:23.037Z,100810.25
2019-01-06T05:09:56.713Z,100802.32
2019-01-06T05:12:27.804Z,100810.23
2019-01-06T05:15:15.366Z,100815.53
2019-01-06T05:17:58.348Z,100811.56
2019-01-06T05:20:29.460Z,100814.50
2019-01-06T05:23:08.997Z,100818.98
2019-01-06T05:25:52.089Z,100818.28
2019-01-06T05:28:39.434Z,100826.41
2019-01-06T05:31:13.524Z,100825.98
2019-01-06T05:33:44.808Z,100834.23
2019-01-06T05:36:18.570Z,100834.23
2019-01-06T05:39:06.148Z,100834.65
2019-01-06T05:41:40.190Z,100838.60
2019-01-06T05:44:11.476Z,100837.67
2019-01-06T05:46:45.885Z,100849.27
2019-01-06T05:49:33.195Z,100847.84
2019-01-06T05:52:21.144Z,100852.53
2019-01-06T05:54:54.238Z,100847.34
2019-01-06T05:57:41.540Z,100851.69
2019-01-06T06:03:33.287Z,100860.45
2019-01-06T06:06:07.096Z,100859.73
2019-01-06T06:08:55.871Z,100866.14
2019-01-06T06:11:35.742Z,100864.90
2019-01-06T06:14:06.861Z,100872.31
2019-01-06T06:16:46.974Z,100877.61
2019-01-06T06:19:23.729Z,100879.95
2019-01-06T06:22:11.533Z,100883.00
2019-01-06T06:24:45.032Z,100883.70
2019-01-06T06:27:16.126Z,100879.03
2019-01-06T06:29:47.254Z,100885.23
2019-01-06T06:32:35.098Z,100894.08
2019-01-06T06:35:09.166Z,100899.16
2019-01-06T06:37:43.044Z,100897.55
2019-01-06T06:40:14.145Z,100900.79
2019-01-06T06:42:51.299Z,100900.56
2019-01-06T06:45:35.046Z,100906.27
2019-01-06T06:48:06.146Z,100904.75
2019-01-06T06:50:39.746Z,100908.39
2019-01-06T06:53:13.804Z,100911.14
2019-01-06T06:56:03.494Z,100912.16
2019-01-06T06:58:53.130Z,100916.13
2019-01-06T07:01:32.667Z,100918.06
2019-01-06T07:04:06.687Z,100913.67
2019-01-06T07:06:46.585Z,100925.67
2019-01-06T07:09:20.379Z,100933.22
2019-01-06T07:12:07.642Z,100936.23
2019-01-06T07:14:38.753Z,100937.56
2019-01-06T07:17:47.743Z,100936.86
2019-01-06T07:20:24.138Z,100942.14
2019-01-06T07:22:55.322Z,100948.85
2019-01-06T07:25:26.680Z,100958.02
2019-01-06T07:28:12.900Z,100955.37
2019-01-06T07:30:49.976Z,100963.52
2019-01-06T07:33:27.416Z,100966.27
2019-01-06T07:36:04.789Z,100967.86
2019-01-06T07:38:51.235Z,100970.83
2019-01-06T07:41:37.260Z,100972.84
2019-01-06T07:44:17.678Z,100977.33
2019-01-06T07:47:04.941Z,100984.04
2019-01-06T07:49:52.089Z,100985.14
2019-01-06T07:52:39.414Z,100990.23
2019-01-06T07:55:10.527Z,100988.84
2019-01-06T07:57:47.696Z,100990.42
2019-01-06T08:00:30.692Z,100994.61
2019-01-06T08:03:17.857Z,100997.86
2019-01-06T08:06:07.227Z,100991.77
2019-01-06T08:08:41.224Z,100996.66
2019-01-06T08:11:28.810Z,100999.59
2019-01-06T08:14:02.949Z,101007.44
2019-01-06T08:16:37.238Z,101005.90
2019-01-06T08:19:08.342Z,101005.61
2019-01-06T08:21:48.198Z,101007.73
2019-01-06T08:24:19.297Z,101014.67
2019-01-06T08:27:06.416Z,101009.78
2019-01-06T08:29:43.294Z,101012.75
2019-01-06T08:32:14.395Z,101016.60
2019-01-06T08:34:47.988Z,101010.32
2019-01-06T08:37:31.134Z,101020.41
2019-01-06T08:40:08.330Z,101027.02
2019-01-06T08:42:54.738Z,101026.60
2019-01-06T08:45:28.690Z,101022.23
2019-01-06T08:48:15.271Z,101026.20
2019-01-06T08:51:03.551Z,101028.03
2019-01-06T08:53:40.894Z,101034.23
2019-01-06T08:56:14.726Z,101024.27
2019-01-06T08:59:00.897Z,101029.58
2019-01-06T09:01:48.069Z,101037.52
2019-01-06T09:04:25.112Z,101029.89
2019-01-06T09:06:56.553Z,101034.59
2019-01-06T09:09:45.808Z,101034.78
2019-01-06T09:12:33.191Z,101039.15
2019-01-06T09:15:04.277Z,101037.59
2019-01-06T09:17:38.400Z,101043.89
2019-01-06T09:20:16.806Z,101040.73
2019-01-06T09:22:54.239Z,101045.65
2019-01-06T09:25:43.340Z,101045.65
2019-01-06T09:28:14.425Z,101045.22
2019-01-06T09:30:51.457Z,101050.94
2019-01-06T09:33:34.274Z,101056.22
2019-01-06T09:36:13.848Z,101049.59
2019-01-06T09:39:02.937Z,101055.50
2019-01-06T09:41:39.999Z,101057.33
2019-01-06T09:44:27.527Z,101053.04
2019-01-06T09:46:58.622Z,101051.40
2019-01-06T09:49:35.691Z,101047.55
2019-01-06T09:52:09.576Z,101047.00
2019-01-06T09:54:58.728Z,101054.64
2019-01-06T09:57:29.830Z,101056.25
2019-01-06T10:00:06.350Z,101055.88
2019-01-06T10:02:40.187Z,101060.45
2019-01-06T10:05:27.608Z,101063.22
2019-01-06T10:08:01.664Z,101058.87
2019-01-06T10:10:38.295Z,101062.51
2019-01-06T10:13:15.482Z,101061.89
2019-01-06T10:15:55.285Z,101063.64
2019-01-06T10:18:26.375Z,101069.84
2019-01-06T10:21:06.443Z,101071.36
2019-01-06T10:23:52.527Z,101076.00
2019-01-06T10:26:35.363Z,101080.58
2019-01-06T10:29:06.449Z,101075.38
2019-01-06T10:31:54.103Z,101075.45
2019-01-06T10:34:25.188Z,101066.83
2019-01-06T10:36:56.688Z,101069.66
2019-01-06T10:39:42.499Z,101070.98
2019-01-06T10:42:25.422Z,101074.32
2019-01-06T10:44:56.514Z,101068.01
2019-01-06T10:47:36.710Z,101075.67
2019-01-06T10:50:12.693Z,101071.49
2019-01-06T10:53:02.132Z,101074.24
2019-01-06T10:55:45.478Z,101071.57
2019-01-06T10:58:32.964Z,101072.38
2019-01-06T11:01:20.151Z,101070.90
2019-01-06T11:03:53.653Z,101073.22
2019-01-06T11:06:40.010Z,101074.54
2019-01-06T11:09:17.501Z,101078.10
2019-01-06T11:12:03.650Z,101087.13
2019-01-06T11:14:43.440Z,101082.06
2019-01-06T11:17:16.971Z,101085.03
2019-01-06T11:19:50.441Z,101085.55
2019-01-06T11:22:30.904Z,101083.34
2019-01-06T11:25:02.282Z,101079.29
2019-01-06T11:27:51.425Z,101079.80
2019-01-06T11:30:22.510Z,101083.30
2019-01-06T11:32:56.325Z,101082.31
2019-01-06T11:35:42.481Z,101088.32
2019-01-06T11:38:13.578Z,101081.52
2019-01-06T11:40:56.454Z,101078.38
2019-01-06T11:43:30.215Z,101070.54
2019-01-06T11:46:04.454Z,101060.05
2019-01-06T11:48:35.554Z,101056.19
2019-01-06T11:51:09.709Z,101054.06
2019-01-06T11:53:46.610Z,101057.53
2019-01-06T11:56:26.631Z,101056.38
2019-01-06T11:58:57.715Z,101055.27
2019-01-06T12:01:37.690Z,101056.50
2019-01-06T12:04:26.854Z,101056.49
2019-01-06T12:07:03.530Z,101061.78
2019-01-06T12:09:41.097Z,101055.78
2019-01-06T12:12:12.179Z,101057.20
2019-01-06T12:15:01.544Z,101068.20
2019-01-06T12:17:48.422Z,101063.33
2019-01-06T12:20:22.356Z,101063.10
2019-01-06T12:22:59.820Z,101059.14
2019-01-06T12:25:30.908Z,101061.07
2019-01-06T12:28:02.076Z,101061.07
2019-01-06T12:30:48.183Z,101059.55
2019-01-06T12:33:35.891Z,101066.79
2019-01-06T12:36:25.394Z,101068.91
2019-01-06T12:39:02.012Z,101076.03
2019-01-06T12:41:33.425Z,101075.13
2019-01-06T12:44:16.682Z,101071.45
2019-01-06T12:46:56.761Z,101078.89
2019-01-06T12:49:36.555Z,101084.18
2019-01-06T12:52:10.322Z,101081.93
2019-01-06T12:54:41.655Z,101085.40
2019-01-06T12:57:29.241Z,101087.73
2019-01-06T13:00:09.608Z,101087.75
2019-01-06T13:02:52.653Z,101086.22
2019-01-06T13:05:23.740Z,101093.23
2019-01-06T13:08:11.182Z,101090.59
2019-01-06T13:10:45.309Z,101091.30
2019-01-06T13:13:19.322Z,101090.28
2019-01-06T13:15:50.395Z,101100.14
2019-01-06T13:18:36.240Z,101100.84
2019-01-06T13:21:23.658Z,101100.03
2019-01-06T13:23:54.757Z,101102.15
2019-01-06T13:26:42.365Z,101107.84
2019-01-06T13:29:28.808Z,101113.34
2019-01-06T13:32:05.608Z,101113.62
2019-01-06T13:34:39.683Z,101117.77
2019-01-06T13:37:22.319Z,101120.81
2019-01-06T13:40:11.406Z,101114.61
2019-01-06T13:42:46.472Z,101117.33
2019-01-06T13:45:20.022Z,101119.27
2019-01-06T13:48:00.150Z,101117.95
2019-01-06T13:50:47.383Z,101120.78
2019-01-06T13:53:36.614Z,101121.23
2019-01-06T13:56:24.097Z,101122.19
2019-01-06T13:58:57.888Z,101128.25
2019-01-06T14:01:44.192Z,101131.91
2019-01-06T14:04:29.950Z,101134.86
2019-01-06T14:07:01.042Z,101131.91
2019-01-06T14:09:48.472Z,101138.41
2019-01-06T14:12:19.563Z,101132.69
2019-01-06T14:14:53.077Z,101130.85
2019-01-06T14:17:36.447Z,101138.20
2019-01-06T14:20:16.612Z,101136.69
2019-01-06T14:22:49.336Z,101137.72
2019-01-06T14:25:23.528Z,101143.70
2019-01-06T14:28:03.591Z,101137.68
2019-01-06T14:30:50.940Z,101149.94
2019-01-06T14:33:36.816Z,101145.56
2019-01-06T14:36:13.553Z,101151.19
2019-01-06T14:38:47.631Z,101153.53
2019-01-06T14:41:30.392Z,101152.10
2019-01-06T14:44:10.492Z,101156.55
2019-01-06T14:46:47.317Z,101158.31
2019-01-06T14:49:34.427Z,101153.83
2019-01-06T14:52:20.769Z,101154.05
2019-01-06T14:54:55.062Z,101155.78
2019-01-06T14:57:28.807Z,101155.27
2019-01-06T15:00:14.780Z,101159.05
2019-01-06T15:02:48.883Z,101158.06
2019-01-06T15:05:20.346Z,101162.35
2019-01-06T15:07:51.467Z,101164.48
2019-01-06T15:10:28.442Z,101163.13
2019-01-06T15:13:08.581Z,101166.47
2019-01-06T15:15:57.382Z,101166.28
2019-01-06T15:18:44.809Z,101169.22
2019-01-06T15:21:15.910Z,101161.91
2019-01-06T15:24:03.532Z,101161.22
2019-01-06T15:26:34.622Z,101166.10
2019-01-06T15:29:24.220Z,101167.50
2019-01-06T15:32:11.259Z,101163.16
2019-01-06T15:34:58.791Z,101164.86
2019-01-06T15:37:41.588Z,101167.39
2019-01-06T15:40:29.404Z,101169.84
2019-01-06T15:43:00.838Z,101171.97
2019-01-06T15:45:31.940Z,101170.47
2019-01-06T15:48:14.997Z,101169.22
2019-01-06T15:50:54.621Z,101178.80
2019-01-06T15:53:28.755Z,101175.06
2019-01-06T15:56:11.889Z,101183.36
2019-01-06T15:58:45.397Z,101176.89
2019-01-06T16:01:16.531Z,101178.70
2019-01-06T16:03:59.647Z,101173.81
2019-01-06T16:06:40.220Z,101177.70
2019-01-06T16:09:14.362Z,101181.55
2019-01-06T16:11:51.602Z,101184.61
2019-01-06T16:14:37.409Z,101180.72
2019-01-06T16:17:08.680Z,101181.45
2019-01-06T16:19:45.259Z,101179.72
2019-01-06T16:22:32.345Z,101177.84
2019-01-06T16:25:03.470Z,101187.32
2019-01-06T16:27:43.416Z,101183.76
2019-01-06T16:30:14.574Z,101178.88
2019-01-06T16:32:54.682Z,101178.88
2019-01-06T16:35:26.043Z,101182.77
2019-01-06T16:38:12.221Z,101182.03
2019-01-06T16:41:08.360Z,101186.33
2019-01-06T16:43:47.970Z,101186.63
2019-01-06T16:46:30.978Z,101180.02
2019-01-06T16:49:04.614Z,101174.66
2019-01-06T16:51:35.826Z,101170.69
2019-01-06T16:54:06.931Z,101161.84
2019-01-06T16:56:46.758Z,101162.53
2019-01-06T16:59:33.746Z,101163.93
2019-01-06T17:02:10.949Z,101163.42
2019-01-06T17:04:47.925Z,101170.13
2019-01-06T17:07:21.765Z,101158.94
2019-01-06T17:09:59.109Z,101172.19
2019-01-06T17:12:31.845Z,101167.60
2019-01-06T17:15:04.591Z,101169.33
2019-01-06T17:17:38.401Z,101164.27
2019-01-06T17:20:24.672Z,101161.98
2019-01-06T17:22:55.831Z,101158.64
2019-01-06T17:25:29.839Z,101166.17
2019-01-06T17:28:13.165Z,101162.02
2019-01-06T17:30:44.263Z,101165.11
2019-01-06T17:33:15.351Z,101165.80
2019-01-06T17:36:01.251Z,101167.05
2019-01-06T17:38:49.280Z,101165.41
2019-01-06T17:41:36.533Z,101166.95
2019-01-06T17:44:07.815Z,101175.69
2019-01-06T17:46:55.359Z,101175.83
2019-01-06T17:49:38.855Z,101182.81
2019-01-06T17:52:15.917Z,101183.44
2019-01-06T17:54:49.444Z,101186.89
2019-01-06T17:57:32.399Z,101190.86
2019-01-06T18:00:09.704Z,101184.46
2019-01-06T18:02:49.732Z,101187.73
2019-01-06T18:05:30.041Z,101187.73
2019-01-06T18:08:03.576Z,101188.32
2019-01-06T18:10:37.511Z,101185.86
2019-01-06T18:13:24.887Z,101185.89
2019-01-06T18:16:01.704Z,101185.16
2019-01-06T18:18:48.981Z,101190.59
2019-01-06T18:21:28.855Z,101197.39
2019-01-06T18:24:11.879Z,101195.95
2019-01-06T18:26:59.471Z,101197.68
2019-01-06T18:29:46.683Z,101201.91
2019-01-06T18:32:34.337Z,101196.62
2019-01-06T18:35:05.767Z,101186.04
2019-01-06T18:37:54.796Z,101188.80
2019-01-06T18:40:42.637Z,101182.81
2019-01-06T18:43:22.517Z,101179.50
2019-01-06T18:46:10.167Z,101178.47
2019-01-06T18:48:59.828Z,101175.27
2019-01-06T18:51:37.184Z,101181.81
2019-01-06T18:54:25.347Z,101191.48
2019-01-06T18:56:59.676Z,101191.00
2019-01-06T18:59:43.161Z,101191.82
2019-01-06T19:02:25.955Z,101197.75
2019-01-06T19:05:05.999Z,101201.61
2019-01-06T19:07:37.094Z,101206.02
2019-01-06T19:10:08.298Z,101195.31
2019-01-06T19:12:42.067Z,101193.41
2019-01-06T19:15:16.404Z,101196.47
2019-01-06T19:18:05.709Z,101202.53
2019-01-06T19:20:53.056Z,101198.45
2019-01-06T19:23:24.141Z,101197.72
2019-01-06T19:26:12.062Z,101202.31
2019-01-06T19:28:43.147Z,101198.75
2019-01-06T19:31:14.268Z,101190.48
2019-01-06T19:33:45.456Z,101195.78
2019-01-06T19:36:31.572Z,101195.33
2019-01-06T19:39:19.061Z,101198.09
2019-01-06T19:42:05.408Z,101198.71
2019-01-06T19:44:39.427Z,101203.48
2019-01-06T19:47:19.403Z,101197.98
2019-01-06T19:49:53.456Z,101202.68
2019-01-06T19:52:24.568Z,101199.52
2019-01-06T19:54:55.650Z,101206.64
2019-01-06T19:57:29.407Z,101206.68
2019-01-06T20:00:16.928Z,101207.30
2019-01-06T20:02:55.351Z,101209.14
2019-01-06T20:05:44.471Z,101207.20
2019-01-06T20:08:32.260Z,101212.16
2019-01-06T20:11:12.249Z,101208.19
2019-01-06T20:13:43.334Z,101213.48
2019-01-06T20:16:17.087Z,101208.30
2019-01-06T20:19:04.597Z,101212.16
2019-01-06T20:21:51.877Z,101212.97
2019-01-06T20:24:28.946Z,101204.44
2019-01-06T20:27:07.689Z,101205.36
2019-01-06T20:29:41.577Z,101206.28
2019-01-06T20:35:20.762Z,101209.73
2019-01-06T20:37:51.860Z,101205.25
2019-01-06T20:40:28.968Z,101208.30
2019-01-06T20:46:09.136Z,101205.17
2019-01-06T20:48:43.192Z,101203.85
2019-01-06T20:51:14.766Z,101199.74
2019-01-06T20:54:02.303Z,101203.34
2019-01-06T20:56:50.089Z,101204.26
2019-01-06T20:59:21.185Z,101204.95
2019-01-06T21:02:07.594Z,101202.20
2019-01-06T21:04:54.688Z,101205.14
2019-01-06T21:07:26.770Z,101210.50
2019-01-06T21:10:12.850Z,101215.39
2019-01-06T21:12:56.197Z,101207.56
2019-01-06T21:15:43.603Z,101212.85
2019-01-06T21:18:31.129Z,101215.05
2019-01-06T21:21:18.426Z,101210.39
2019-01-06T21:24:05.459Z,101211.89
2019-01-06T21:26:53.105Z,101205.50
2019-01-06T21:29:24.471Z,101207.01
2019-01-06T21:32:02.809Z,101207.13
2019-01-06T21:34:33.933Z,101208.95
2019-01-06T21:37:07.798Z,101208.62
2019-01-06T21:39:42.120Z,101207.59
2019-01-06T21:42:29.709Z,101204.77
2019-01-06T21:45:03.488Z,101202.93
2019-01-06T21:47:46.575Z,101201.44
2019-01-06T21:50:17.905Z,101195.63
2019-01-06T21:52:49.021Z,101197.31
2019-01-06T21:55:31.889Z,101194.56
2019-01-06T21:58:19.135Z,101194.27
2019-01-06T22:00:56.173Z,101197.02
2019-01-06T22:03:27.420Z,101193.94
2019-01-06T22:06:14.979Z,101192.31
2019-01-06T22:09:01.183Z,101194.27
2019-01-06T22:11:41.550Z,101183.61
2019-01-06T22:14:12.645Z,101188.79
2019-01-06T22:16:49.188Z,101181.16
2019-01-06T22:19:36.125Z,101185.41
2019-01-06T22:22:23.117Z,101190.45
2019-01-06T22:24:59.882Z,101185.34
2019-01-06T22:27:31.053Z,101187.48
2019-01-06T22:30:17.114Z,101185.27
2019-01-06T22:32:50.979Z,101193.09
2019-01-06T22:35:34.432Z,101197.80
2019-01-06T22:38:08.527Z,101192.21
2019-01-06T22:40:55.776Z,101182.11
2019-01-06T22:43:29.695Z,101183.36
2019-01-06T22:46:00.778Z,101182.44
2019-01-06T22:48:34.605Z,101178.44
2019-01-06T22:51:08.381Z,101182.19
2019-01-06T22:53:39.615Z,101185.97
2019-01-06T22:56:11.029Z,101184.53
2019-01-06T22:58:58.634Z,101186.55
2019-01-06T23:01:32.706Z,101196.25
2019-01-06T23:07:23.687Z,101198.16
2019-01-06T23:10:05.110Z,101202.45
2019-01-06T23:12:48.141Z,101198.67
2019-01-06T23:15:35.415Z,101202.05
2019-01-06T23:18:15.695Z,101207.23
2019-01-06T23:20:52.672Z,101204.00
2019-01-06T23:23:23.851Z,101204.19
2019-01-06T23:26:10.223Z,101207.67
2019-01-06T23:28:50.017Z,101213.37
2019-01-06T23:31:21.421Z,101214.91
2019-01-06T23:33:53.280Z,101211.53
2019-01-06T23:36:29.810Z,101210.31
2019-01-06T23:39:16.737Z,101206.64
2019-01-06T23:42:04.194Z,101205.66
2019-01-06T23:44:38.051Z,101204.62
2019-01-06T23:47:21.454Z,101205.36
2019-01-06T23:49:58.370Z,101198.64
2019-01-06T23:52:44.915Z,101203.71
2019-01-06T23:55:32.684Z,101204.08
2019-01-06T23:58:06.475Z,101202.64
